Aérodrome :
LOGIN :

S'inscrire | Disclaimer

   EN    FR    IT 

 










Légende :    VFR   VFR Marginal   IFR   IFR Intensif   IFR Très Intensif
Visi : 
Plafond : 
>= 8 km
>= 3000ft
5 à 8 km
1000 à 3000 ft
1500m à 5 km
500 à 1000 ft
800 à 1500m
200 à 500 ft
< 800m
< 200 ft
Symboles :   Orages  Brouillard  Fortes neiges  Fortes précipitations  Vent > 20 kt
SIGMETs :   Divers  Orages  Givrage  Turbulence  Onde Orograph.  Cendres Volcan.






- Altitude de l'aérodrome : 1234 ft
- Code IATA : LUX


ELLX - Luxembourg Findel

DERNIER METAR :
  • 301820Z 30010KT 280V340 9999 -SHRA FEW034 BKN043 14/11 Q1014 RESHRA TEMPO 27015G25KT SHRA SCT020CB

METARs EXPIRÉS :
  • 301750Z 27013KT 9999 -SHRA FEW037 SCT045 16/10 Q1014 TEMPO 27015G25KT SHRA SCT024CB
  • 301720Z 30013KT CAVOK 16/10 Q1014 BECMG 27015G25KT SHRA FEW024CB
  • 301650Z 29019KT 9999 SCT024 16/11 Q1013 TEMPO 27020G30KT
  • 301620Z 28018G28KT 9999 SCT009 BKN012 16/12 Q1013 BECMG SCT014
  • 301550Z 27022KT 9999 -SHRA SCT013 FEW050CB 16/13 Q1012 TEMPO 27025G35KT FEW010CB BKN013

TAF TAF ELLX
Valide du 30 à 18h jusqu'au 02 à 00h UTC


301700Z 3018/0124 27015KT CAVOK
TEMPO 3018/3024 FEW015CB BKN020
PROB40
TEMPO 3018/3022 27015G25KT TSRA SCT010CB BKN015
ATIS : +352 4798 27300
Météo : +352 4798 27010 / 27050



MET'MAP, la Météo Aéronautique d'un coup d'oeil ! - Copyright ORBIFLY Décembre 2007 - Disclaimer

ORBIFLY MET'MAP TEAM :

Programmation & Développement : Alexandra Zaïnal
Sur une idée originale de : Baudouin d'Aumeries
Soutien technique & logistique : Manuel Goepfert
Assistance : Marc-Olivier Méhu




SOURCES & CREDITS :

   NOAA